sensor_id;sensor_type;location;lat;lon;timestamp;P1;durP1;ratioP1;P2;durP2;ratioP2
20411;SDS011;10365;52.578;8.138;2023-09-07T00:02:11;5.10;;;4.15;;
20411;SDS011;10365;52.578;8.138;2023-09-07T00:04:37;7.45;;;4.28;;
20411;SDS011;10365;52.578;8.138;2023-09-07T00:07:02;5.80;;;4.30;;
20411;SDS011;10365;52.578;8.138;2023-09-07T00:09:27;4.53;;;3.92;;
20411;SDS011;10365;52.578;8.138;2023-09-07T00:11:53;8.38;;;3.92;;
20411;SDS011;10365;52.578;8.138;2023-09-07T00:14:18;6.75;;;5.00;;
20411;SDS011;10365;52.578;8.138;2023-09-07T00:16:43;6.90;;;3.80;;
20411;SDS011;10365;52.578;8.138;2023-09-07T00:19:09;5.13;;;4.10;;
20411;SDS011;10365;52.578;8.138;2023-09-07T00:21:34;6.00;;;4.53;;
20411;SDS011;10365;52.578;8.138;2023-09-07T00:23:59;5.05;;;4.15;;
20411;SDS011;10365;52.578;8.138;2023-09-07T00:26:29;9.20;;;4.72;;
20411;SDS011;10365;52.578;8.138;2023-09-07T00:28:54;7.22;;;4.43;;
20411;SDS011;10365;52.578;8.138;2023-09-07T00:31:20;8.88;;;4.38;;
20411;SDS011;10365;52.578;8.138;2023-09-07T00:33:45;9.20;;;4.47;;
20411;SDS011;10365;52.578;8.138;2023-09-07T00:36:10;7.60;;;4.45;;
20411;SDS011;10365;52.578;8.138;2023-09-07T00:38:36;9.07;;;4.18;;
20411;SDS011;10365;52.578;8.138;2023-09-07T00:41:01;7.03;;;4.43;;
20411;SDS011;10365;52.578;8.138;2023-09-07T00:43:27;8.00;;;5.00;;
20411;SDS011;10365;52.578;8.138;2023-09-07T00:45:52;6.32;;;4.70;;
20411;SDS011;10365;52.578;8.138;2023-09-07T00:48:18;8.20;;;4.70;;
20411;SDS011;10365;52.578;8.138;2023-09-07T00:50:43;12.07;;;5.15;;
20411;SDS011;10365;52.578;8.138;2023-09-07T00:53:10;6.43;;;5.00;;
20411;SDS011;10365;52.578;8.138;2023-09-07T00:55:35;8.20;;;4.93;;
20411;SDS011;10365;52.578;8.138;2023-09-07T00:58:01;8.27;;;4.80;;
20411;SDS011;10365;52.578;8.138;2023-09-07T01:00:28;5.30;;;4.20;;
20411;SDS011;10365;52.578;8.138;2023-09-07T01:02:54;6.53;;;5.13;;
20411;SDS011;10365;52.578;8.138;2023-09-07T01:05:30;10.07;;;5.28;;
20411;SDS011;10365;52.578;8.138;2023-09-07T01:07:59;8.57;;;5.28;;
20411;SDS011;10365;52.578;8.138;2023-09-07T01:10:26;7.60;;;5.60;;
20411;SDS011;10365;52.578;8.138;2023-09-07T01:12:51;6.68;;;5.13;;
20411;SDS011;10365;52.578;8.138;2023-09-07T01:15:17;7.43;;;4.85;;
20411;SDS011;10365;52.578;8.138;2023-09-07T01:17:42;7.85;;;5.13;;
20411;SDS011;10365;52.578;8.138;2023-09-07T01:20:08;6.43;;;4.72;;
20411;SDS011;10365;52.578;8.138;2023-09-07T01:22:35;7.65;;;5.47;;
20411;SDS011;10365;52.578;8.138;2023-09-07T01:25:01;6.47;;;5.13;;
20411;SDS011;10365;52.578;8.138;2023-09-07T01:27:28;7.88;;;4.68;;
20411;SDS011;10365;52.578;8.138;2023-09-07T01:29:54;6.85;;;5.32;;
20411;SDS011;10365;52.578;8.138;2023-09-07T01:32:19;6.97;;;5.93;;
20411;SDS011;10365;52.578;8.138;2023-09-07T01:34:45;7.00;;;6.03;;
20411;SDS011;10365;52.578;8.138;2023-09-07T01:37:10;14.20;;;6.70;;
20411;SDS011;10365;52.578;8.138;2023-09-07T01:39:36;14.18;;;6.38;;
20411;SDS011;10365;52.578;8.138;2023-09-07T01:42:02;11.13;;;6.85;;
20411;SDS011;10365;52.578;8.138;2023-09-07T01:44:27;14.77;;;6.15;;
20411;SDS011;10365;52.578;8.138;2023-09-07T01:46:55;8.10;;;5.82;;
20411;SDS011;10365;52.578;8.138;2023-09-07T01:49:20;9.65;;;6.38;;
20411;SDS011;10365;52.578;8.138;2023-09-07T01:51:46;10.63;;;5.65;;
20411;SDS011;10365;52.578;8.138;2023-09-07T01:54:11;7.82;;;6.53;;
20411;SDS011;10365;52.578;8.138;2023-09-07T01:56:36;11.07;;;5.82;;
20411;SDS011;10365;52.578;8.138;2023-09-07T01:59:02;11.55;;;6.53;;
20411;SDS011;10365;52.578;8.138;2023-09-07T02:01:31;12.02;;;6.15;;
20411;SDS011;10365;52.578;8.138;2023-09-07T02:03:56;11.10;;;6.57;;
20411;SDS011;10365;52.578;8.138;2023-09-07T02:06:22;7.32;;;5.80;;
20411;SDS011;10365;52.578;8.138;2023-09-07T02:08:47;9.70;;;6.43;;
20411;SDS011;10365;52.578;8.138;2023-09-07T02:11:13;8.80;;;6.82;;
20411;SDS011;10365;52.578;8.138;2023-09-07T02:13:42;9.73;;;6.88;;
20411;SDS011;10365;52.578;8.138;2023-09-07T02:16:08;10.93;;;6.65;;
20411;SDS011;10365;52.578;8.138;2023-09-07T02:18:33;11.13;;;6.55;;
20411;SDS011;10365;52.578;8.138;2023-09-07T02:21:02;8.57;;;7.13;;
20411;SDS011;10365;52.578;8.138;2023-09-07T02:23:28;8.43;;;6.38;;
20411;SDS011;10365;52.578;8.138;2023-09-07T02:25:54;9.55;;;7.28;;
20411;SDS011;10365;52.578;8.138;2023-09-07T02:28:19;12.57;;;7.30;;
20411;SDS011;10365;52.578;8.138;2023-09-07T02:30:45;11.20;;;7.65;;
20411;SDS011;10365;52.578;8.138;2023-09-07T02:33:10;13.65;;;7.53;;
20411;SDS011;10365;52.578;8.138;2023-09-07T02:35:38;13.85;;;7.30;;
20411;SDS011;10365;52.578;8.138;2023-09-07T02:38:04;9.38;;;7.13;;
20411;SDS011;10365;52.578;8.138;2023-09-07T02:40:29;15.30;;;7.72;;
20411;SDS011;10365;52.578;8.138;2023-09-07T02:42:55;9.50;;;6.93;;
20411;SDS011;10365;52.578;8.138;2023-09-07T02:45:20;10.80;;;7.32;;
20411;SDS011;10365;52.578;8.138;2023-09-07T02:47:45;10.48;;;8.52;;
20411;SDS011;10365;52.578;8.138;2023-09-07T02:50:12;9.50;;;7.50;;
20411;SDS011;10365;52.578;8.138;2023-09-07T02:52:39;10.55;;;6.65;;
20411;SDS011;10365;52.578;8.138;2023-09-07T02:55:04;8.77;;;6.55;;
20411;SDS011;10365;52.578;8.138;2023-09-07T02:57:30;10.32;;;7.85;;
20411;SDS011;10365;52.578;8.138;2023-09-07T02:59:55;10.73;;;7.40;;
20411;SDS011;10365;52.578;8.138;2023-09-07T03:02:21;11.90;;;7.18;;
20411;SDS011;10365;52.578;8.138;2023-09-07T03:04:46;12.15;;;6.53;;
20411;SDS011;10365;52.578;8.138;2023-09-07T03:07:11;12.25;;;7.13;;
20411;SDS011;10365;52.578;8.138;2023-09-07T03:09:37;8.23;;;6.47;;
20411;SDS011;10365;52.578;8.138;2023-09-07T03:12:03;11.77;;;6.80;;
20411;SDS011;10365;52.578;8.138;2023-09-07T03:14:29;9.30;;;6.68;;
20411;SDS011;10365;52.578;8.138;2023-09-07T03:16:54;8.68;;;6.63;;
20411;SDS011;10365;52.578;8.138;2023-09-07T03:19:20;11.93;;;7.88;;
20411;SDS011;10365;52.578;8.138;2023-09-07T03:21:46;9.68;;;6.95;;
20411;SDS011;10365;52.578;8.138;2023-09-07T03:24:11;9.52;;;7.45;;
20411;SDS011;10365;52.578;8.138;2023-09-07T03:26:37;8.43;;;7.00;;
20411;SDS011;10365;52.578;8.138;2023-09-07T03:29:04;10.60;;;7.35;;
20411;SDS011;10365;52.578;8.138;2023-09-07T03:31:30;11.32;;;8.73;;
20411;SDS011;10365;52.578;8.138;2023-09-07T03:33:56;9.20;;;8.05;;
20411;SDS011;10365;52.578;8.138;2023-09-07T03:36:21;11.35;;;9.68;;
20411;SDS011;10365;52.578;8.138;2023-09-07T03:38:47;12.43;;;9.30;;
20411;SDS011;10365;52.578;8.138;2023-09-07T03:41:13;12.30;;;9.15;;
20411;SDS011;10365;52.578;8.138;2023-09-07T03:43:38;11.32;;;8.60;;
20411;SDS011;10365;52.578;8.138;2023-09-07T03:46:05;10.48;;;8.50;;
20411;SDS011;10365;52.578;8.138;2023-09-07T03:48:30;12.40;;;9.52;;
20411;SDS011;10365;52.578;8.138;2023-09-07T03:50:56;12.45;;;9.25;;
20411;SDS011;10365;52.578;8.138;2023-09-07T03:53:22;14.75;;;9.60;;
20411;SDS011;10365;52.578;8.138;2023-09-07T03:55:47;10.43;;;9.05;;
20411;SDS011;10365;52.578;8.138;2023-09-07T03:58:15;12.68;;;9.88;;
20411;SDS011;10365;52.578;8.138;2023-09-07T04:00:43;12.13;;;10.15;;
20411;SDS011;10365;52.578;8.138;2023-09-07T04:03:08;18.85;;;9.82;;
20411;SDS011;10365;52.578;8.138;2023-09-07T04:05:36;15.85;;;10.40;;
20411;SDS011;10365;52.578;8.138;2023-09-07T04:08:01;15.52;;;10.43;;
20411;SDS011;10365;52.578;8.138;2023-09-07T04:10:28;26.38;;;10.98;;
20411;SDS011;10365;52.578;8.138;2023-09-07T04:12:53;20.35;;;11.15;;
20411;SDS011;10365;52.578;8.138;2023-09-07T04:15:19;14.93;;;10.57;;
20411;SDS011;10365;52.578;8.138;2023-09-07T04:17:44;12.57;;;9.63;;
20411;SDS011;10365;52.578;8.138;2023-09-07T04:20:10;15.80;;;10.40;;
20411;SDS011;10365;52.578;8.138;2023-09-07T04:22:38;20.27;;;10.80;;
20411;SDS011;10365;52.578;8.138;2023-09-07T04:25:03;16.50;;;11.40;;
20411;SDS011;10365;52.578;8.138;2023-09-07T04:27:30;16.98;;;10.40;;
20411;SDS011;10365;52.578;8.138;2023-09-07T04:29:55;15.52;;;11.10;;
20411;SDS011;10365;52.578;8.138;2023-09-07T04:32:20;14.75;;;10.20;;
20411;SDS011;10365;52.578;8.138;2023-09-07T04:34:46;17.67;;;9.68;;
20411;SDS011;10365;52.578;8.138;2023-09-07T04:37:11;16.50;;;9.45;;
20411;SDS011;10365;52.578;8.138;2023-09-07T04:39:37;15.43;;;9.88;;
20411;SDS011;10365;52.578;8.138;2023-09-07T04:42:02;16.52;;;10.50;;
20411;SDS011;10365;52.578;8.138;2023-09-07T04:44:27;11.30;;;9.80;;
20411;SDS011;10365;52.578;8.138;2023-09-07T04:46:56;13.57;;;10.18;;
20411;SDS011;10365;52.578;8.138;2023-09-07T04:49:22;15.18;;;9.30;;
20411;SDS011;10365;52.578;8.138;2023-09-07T04:51:48;18.38;;;9.55;;
20411;SDS011;10365;52.578;8.138;2023-09-07T04:54:14;19.67;;;10.48;;
20411;SDS011;10365;52.578;8.138;2023-09-07T04:56:41;12.57;;;9.38;;
20411;SDS011;10365;52.578;8.138;2023-09-07T04:59:07;21.60;;;10.20;;
20411;SDS011;10365;52.578;8.138;2023-09-07T05:01:33;18.27;;;10.65;;
20411;SDS011;10365;52.578;8.138;2023-09-07T05:03:58;23.40;;;10.80;;
20411;SDS011;10365;52.578;8.138;2023-09-07T05:06:24;25.98;;;10.35;;
20411;SDS011;10365;52.578;8.138;2023-09-07T05:08:51;22.90;;;10.88;;
20411;SDS011;10365;52.578;8.138;2023-09-07T05:11:16;19.98;;;9.73;;
20411;SDS011;10365;52.578;8.138;2023-09-07T05:13:42;20.13;;;10.40;;
20411;SDS011;10365;52.578;8.138;2023-09-07T05:16:07;20.45;;;10.93;;
20411;SDS011;10365;52.578;8.138;2023-09-07T05:18:35;20.75;;;10.40;;
20411;SDS011;10365;52.578;8.138;2023-09-07T05:21:00;23.80;;;11.07;;
20411;SDS011;10365;52.578;8.138;2023-09-07T05:23:25;17.92;;;10.38;;
20411;SDS011;10365;52.578;8.138;2023-09-07T05:25:53;23.98;;;10.95;;
20411;SDS011;10365;52.578;8.138;2023-09-07T05:28:21;24.33;;;11.18;;
20411;SDS011;10365;52.578;8.138;2023-09-07T05:30:46;14.63;;;10.90;;
20411;SDS011;10365;52.578;8.138;2023-09-07T05:33:15;15.73;;;9.90;;
20411;SDS011;10365;52.578;8.138;2023-09-07T05:35:41;13.80;;;9.23;;
20411;SDS011;10365;52.578;8.138;2023-09-07T05:38:08;14.77;;;10.32;;
20411;SDS011;10365;52.578;8.138;2023-09-07T05:40:36;13.73;;;9.55;;
20411;SDS011;10365;52.578;8.138;2023-09-07T05:43:01;19.13;;;9.70;;
20411;SDS011;10365;52.578;8.138;2023-09-07T05:45:34;13.63;;;9.57;;
20411;SDS011;10365;52.578;8.138;2023-09-07T05:48:01;21.38;;;11.85;;
20411;SDS011;10365;52.578;8.138;2023-09-07T05:50:27;17.13;;;10.02;;
20411;SDS011;10365;52.578;8.138;2023-09-07T05:52:53;17.15;;;9.20;;
20411;SDS011;10365;52.578;8.138;2023-09-07T05:55:18;13.02;;;9.43;;
20411;SDS011;10365;52.578;8.138;2023-09-07T05:57:44;13.85;;;8.73;;
20411;SDS011;10365;52.578;8.138;2023-09-07T06:00:09;13.45;;;9.45;;
20411;SDS011;10365;52.578;8.138;2023-09-07T06:02:38;19.95;;;9.98;;
20411;SDS011;10365;52.578;8.138;2023-09-07T06:05:04;16.27;;;9.80;;
20411;SDS011;10365;52.578;8.138;2023-09-07T06:07:30;21.73;;;9.23;;
20411;SDS011;10365;52.578;8.138;2023-09-07T06:09:55;15.27;;;9.90;;
20411;SDS011;10365;52.578;8.138;2023-09-07T06:12:24;13.05;;;8.90;;
20411;SDS011;10365;52.578;8.138;2023-09-07T06:14:49;19.10;;;10.05;;
20411;SDS011;10365;52.578;8.138;2023-09-07T06:17:14;14.13;;;8.90;;
20411;SDS011;10365;52.578;8.138;2023-09-07T06:19:40;18.42;;;9.52;;
20411;SDS011;10365;52.578;8.138;2023-09-07T06:22:05;20.90;;;9.25;;
20411;SDS011;10365;52.578;8.138;2023-09-07T06:24:30;20.48;;;9.38;;
20411;SDS011;10365;52.578;8.138;2023-09-07T06:26:56;22.02;;;9.60;;
20411;SDS011;10365;52.578;8.138;2023-09-07T06:29:21;14.15;;;8.55;;
20411;SDS011;10365;52.578;8.138;2023-09-07T06:31:47;16.05;;;9.50;;
20411;SDS011;10365;52.578;8.138;2023-09-07T06:34:15;12.38;;;8.90;;
20411;SDS011;10365;52.578;8.138;2023-09-07T06:36:41;11.93;;;8.80;;
20411;SDS011;10365;52.578;8.138;2023-09-07T06:39:06;14.70;;;9.30;;
20411;SDS011;10365;52.578;8.138;2023-09-07T06:41:31;16.15;;;9.27;;
20411;SDS011;10365;52.578;8.138;2023-09-07T06:43:57;14.52;;;9.07;;
20411;SDS011;10365;52.578;8.138;2023-09-07T06:46:22;14.38;;;8.75;;
20411;SDS011;10365;52.578;8.138;2023-09-07T06:48:48;14.30;;;9.02;;
20411;SDS011;10365;52.578;8.138;2023-09-07T06:51:13;10.45;;;8.55;;
20411;SDS011;10365;52.578;8.138;2023-09-07T06:53:39;17.23;;;9.27;;
20411;SDS011;10365;52.578;8.138;2023-09-07T06:56:04;13.88;;;9.30;;
20411;SDS011;10365;52.578;8.138;2023-09-07T06:58:31;22.05;;;8.90;;
20411;SDS011;10365;52.578;8.138;2023-09-07T07:00:58;17.85;;;9.15;;
20411;SDS011;10365;52.578;8.138;2023-09-07T07:03:28;28.17;;;9.35;;
20411;SDS011;10365;52.578;8.138;2023-09-07T07:05:53;16.02;;;8.60;;
20411;SDS011;10365;52.578;8.138;2023-09-07T07:08:19;14.55;;;8.82;;
20411;SDS011;10365;52.578;8.138;2023-09-07T07:10:44;12.82;;;8.23;;
20411;SDS011;10365;52.578;8.138;2023-09-07T07:13:11;16.05;;;8.95;;
20411;SDS011;10365;52.578;8.138;2023-09-07T07:15:36;18.75;;;9.20;;
20411;SDS011;10365;52.578;8.138;2023-09-07T07:18:02;18.85;;;8.52;;
20411;SDS011;10365;52.578;8.138;2023-09-07T07:20:40;11.30;;;8.52;;
20411;SDS011;10365;52.578;8.138;2023-09-07T07:23:06;17.60;;;8.52;;
20411;SDS011;10365;52.578;8.138;2023-09-07T07:25:33;14.35;;;8.60;;
20411;SDS011;10365;52.578;8.138;2023-09-07T07:27:59;13.82;;;8.73;;
20411;SDS011;10365;52.578;8.138;2023-09-07T07:30:28;14.45;;;7.95;;
20411;SDS011;10365;52.578;8.138;2023-09-07T07:32:56;18.15;;;7.88;;
20411;SDS011;10365;52.578;8.138;2023-09-07T07:35:22;17.73;;;8.27;;
20411;SDS011;10365;52.578;8.138;2023-09-07T07:37:48;13.98;;;7.15;;
20411;SDS011;10365;52.578;8.138;2023-09-07T07:40:14;15.88;;;6.65;;
20411;SDS011;10365;52.578;8.138;2023-09-07T07:42:39;16.42;;;7.30;;
20411;SDS011;10365;52.578;8.138;2023-09-07T07:45:06;15.30;;;7.53;;
20411;SDS011;10365;52.578;8.138;2023-09-07T07:47:32;12.85;;;6.80;;
20411;SDS011;10365;52.578;8.138;2023-09-07T07:49:57;16.75;;;6.80;;
20411;SDS011;10365;52.578;8.138;2023-09-07T07:52:23;12.82;;;7.30;;
20411;SDS011;10365;52.578;8.138;2023-09-07T07:54:49;17.90;;;7.30;;
20411;SDS011;10365;52.578;8.138;2023-09-07T07:57:14;13.07;;;6.65;;
20411;SDS011;10365;52.578;8.138;2023-09-07T07:59:39;15.13;;;6.80;;
20411;SDS011;10365;52.578;8.138;2023-09-07T08:02:06;16.42;;;6.25;;
20411;SDS011;10365;52.578;8.138;2023-09-07T08:04:31;16.25;;;6.50;;
20411;SDS011;10365;52.578;8.138;2023-09-07T08:06:58;13.82;;;6.07;;
20411;SDS011;10365;52.578;8.138;2023-09-07T08:09:29;10.57;;;5.88;;
20411;SDS011;10365;52.578;8.138;2023-09-07T08:11:55;12.88;;;5.97;;
20411;SDS011;10365;52.578;8.138;2023-09-07T08:14:21;12.32;;;5.97;;
20411;SDS011;10365;52.578;8.138;2023-09-07T08:16:48;18.15;;;5.80;;
20411;SDS011;10365;52.578;8.138;2023-09-07T08:19:14;22.60;;;6.20;;
20411;SDS011;10365;52.578;8.138;2023-09-07T08:21:40;12.85;;;6.00;;
20411;SDS011;10365;52.578;8.138;2023-09-07T08:24:07;16.30;;;5.40;;
20411;SDS011;10365;52.578;8.138;2023-09-07T08:26:35;14.15;;;5.45;;
20411;SDS011;10365;52.578;8.138;2023-09-07T08:29:00;13.85;;;5.85;;
20411;SDS011;10365;52.578;8.138;2023-09-07T08:31:30;15.88;;;5.97;;
20411;SDS011;10365;52.578;8.138;2023-09-07T08:33:56;16.83;;;6.18;;
20411;SDS011;10365;52.578;8.138;2023-09-07T08:36:21;5.85;;;4.35;;
20411;SDS011;10365;52.578;8.138;2023-09-07T08:38:50;11.15;;;4.70;;
20411;SDS011;10365;52.578;8.138;2023-09-07T08:41:15;8.38;;;4.43;;
20411;SDS011;10365;52.578;8.138;2023-09-07T08:43:44;11.10;;;4.80;;
20411;SDS011;10365;52.578;8.138;2023-09-07T08:46:14;10.48;;;5.15;;
20411;SDS011;10365;52.578;8.138;2023-09-07T08:48:40;9.30;;;4.47;;
20411;SDS011;10365;52.578;8.138;2023-09-07T08:51:07;5.07;;;4.57;;
20411;SDS011;10365;52.578;8.138;2023-09-07T08:53:32;11.18;;;5.28;;
20411;SDS011;10365;52.578;8.138;2023-09-07T08:55:59;9.38;;;4.95;;
20411;SDS011;10365;52.578;8.138;2023-09-07T08:58:26;9.57;;;4.55;;
20411;SDS011;10365;52.578;8.138;2023-09-07T09:00:51;7.57;;;4.97;;
20411;SDS011;10365;52.578;8.138;2023-09-07T09:03:17;11.70;;;5.38;;
20411;SDS011;10365;52.578;8.138;2023-09-07T09:05:43;9.40;;;4.95;;
20411;SDS011;10365;52.578;8.138;2023-09-07T09:08:09;11.88;;;4.75;;
20411;SDS011;10365;52.578;8.138;2023-09-07T09:10:37;10.18;;;4.85;;
20411;SDS011;10365;52.578;8.138;2023-09-07T09:13:03;12.48;;;5.00;;
20411;SDS011;10365;52.578;8.138;2023-09-07T09:15:28;8.40;;;4.97;;
20411;SDS011;10365;52.578;8.138;2023-09-07T09:17:53;6.70;;;4.57;;
20411;SDS011;10365;52.578;8.138;2023-09-07T09:20:19;7.85;;;4.65;;
20411;SDS011;10365;52.578;8.138;2023-09-07T09:22:45;6.75;;;5.13;;
20411;SDS011;10365;52.578;8.138;2023-09-07T09:25:10;9.80;;;4.00;;
20411;SDS011;10365;52.578;8.138;2023-09-07T09:27:35;9.27;;;4.95;;
20411;SDS011;10365;52.578;8.138;2023-09-07T09:30:01;9.18;;;4.90;;
20411;SDS011;10365;52.578;8.138;2023-09-07T09:32:26;6.85;;;4.38;;
20411;SDS011;10365;52.578;8.138;2023-09-07T09:34:51;6.78;;;4.30;;
20411;SDS011;10365;52.578;8.138;2023-09-07T09:37:17;11.02;;;4.68;;
20411;SDS011;10365;52.578;8.138;2023-09-07T09:39:45;7.72;;;4.10;;
20411;SDS011;10365;52.578;8.138;2023-09-07T09:42:13;10.55;;;4.65;;
20411;SDS011;10365;52.578;8.138;2023-09-07T09:44:39;6.43;;;4.30;;
20411;SDS011;10365;52.578;8.138;2023-09-07T09:47:06;6.57;;;4.00;;
20411;SDS011;10365;52.578;8.138;2023-09-07T09:49:33;6.88;;;4.28;;
20411;SDS011;10365;52.578;8.138;2023-09-07T09:51:58;13.10;;;4.38;;
20411;SDS011;10365;52.578;8.138;2023-09-07T09:54:24;6.97;;;3.95;;
20411;SDS011;10365;52.578;8.138;2023-09-07T09:56:51;6.32;;;4.82;;
20411;SDS011;10365;52.578;8.138;2023-09-07T09:59:16;11.73;;;4.10;;
20411;SDS011;10365;52.578;8.138;2023-09-07T10:01:46;4.90;;;4.28;;
20411;SDS011;10365;52.578;8.138;2023-09-07T10:04:12;5.10;;;3.80;;
20411;SDS011;10365;52.578;8.138;2023-09-07T10:06:39;5.43;;;3.70;;
20411;SDS011;10365;52.578;8.138;2023-09-07T10:09:05;5.85;;;4.22;;
20411;SDS011;10365;52.578;8.138;2023-09-07T10:11:32;6.82;;;4.40;;
20411;SDS011;10365;52.578;8.138;2023-09-07T10:13:58;11.30;;;4.78;;
20411;SDS011;10365;52.578;8.138;2023-09-07T10:16:24;6.93;;;5.07;;
20411;SDS011;10365;52.578;8.138;2023-09-07T10:18:49;8.77;;;4.68;;
20411;SDS011;10365;52.578;8.138;2023-09-07T10:21:14;11.63;;;4.45;;
20411;SDS011;10365;52.578;8.138;2023-09-07T10:23:40;8.82;;;4.03;;
20411;SDS011;10365;52.578;8.138;2023-09-07T10:26:13;5.15;;;3.60;;
20411;SDS011;10365;52.578;8.138;2023-09-07T10:28:39;8.27;;;4.47;;
20411;SDS011;10365;52.578;8.138;2023-09-07T10:31:05;10.63;;;4.53;;
20411;SDS011;10365;52.578;8.138;2023-09-07T10:33:31;8.05;;;4.45;;
20411;SDS011;10365;52.578;8.138;2023-09-07T10:35:57;6.45;;;4.90;;
20411;SDS011;10365;52.578;8.138;2023-09-07T10:38:23;7.90;;;4.75;;
20411;SDS011;10365;52.578;8.138;2023-09-07T10:40:49;5.05;;;3.95;;
20411;SDS011;10365;52.578;8.138;2023-09-07T10:43:19;7.72;;;4.60;;
20411;SDS011;10365;52.578;8.138;2023-09-07T10:45:45;11.57;;;4.80;;
20411;SDS011;10365;52.578;8.138;2023-09-07T10:48:11;12.60;;;4.93;;
20411;SDS011;10365;52.578;8.138;2023-09-07T10:50:44;8.23;;;4.40;;
20411;SDS011;10365;52.578;8.138;2023-09-07T10:53:11;7.47;;;4.80;;
20411;SDS011;10365;52.578;8.138;2023-09-07T10:55:37;7.93;;;5.00;;
20411;SDS011;10365;52.578;8.138;2023-09-07T10:58:04;9.38;;;4.07;;
20411;SDS011;10365;52.578;8.138;2023-09-07T11:00:29;5.50;;;4.32;;
20411;SDS011;10365;52.578;8.138;2023-09-07T11:02:54;6.68;;;4.32;;
20411;SDS011;10365;52.578;8.138;2023-09-07T11:05:19;6.68;;;4.85;;
20411;SDS011;10365;52.578;8.138;2023-09-07T11:07:45;8.38;;;4.07;;
20411;SDS011;10365;52.578;8.138;2023-09-07T11:10:10;6.93;;;4.18;;
20411;SDS011;10365;52.578;8.138;2023-09-07T11:12:36;10.05;;;5.28;;
20411;SDS011;10365;52.578;8.138;2023-09-07T11:15:02;10.55;;;4.38;;
20411;SDS011;10365;52.578;8.138;2023-09-07T11:17:28;13.00;;;5.10;;
20411;SDS011;10365;52.578;8.138;2023-09-07T11:19:53;5.40;;;4.05;;
20411;SDS011;10365;52.578;8.138;2023-09-07T11:22:19;6.57;;;4.40;;
20411;SDS011;10365;52.578;8.138;2023-09-07T11:24:44;8.38;;;4.30;;
20411;SDS011;10365;52.578;8.138;2023-09-07T11:27:10;12.60;;;4.30;;
20411;SDS011;10365;52.578;8.138;2023-09-07T11:29:35;9.60;;;4.38;;
20411;SDS011;10365;52.578;8.138;2023-09-07T11:32:07;13.68;;;4.25;;
20411;SDS011;10365;52.578;8.138;2023-09-07T11:34:34;4.88;;;3.47;;
20411;SDS011;10365;52.578;8.138;2023-09-07T11:37:01;12.68;;;3.95;;
20411;SDS011;10365;52.578;8.138;2023-09-07T11:39:27;6.97;;;3.60;;
20411;SDS011;10365;52.578;8.138;2023-09-07T11:41:53;6.75;;;4.50;;
20411;SDS011;10365;52.578;8.138;2023-09-07T11:44:18;9.82;;;4.40;;
20411;SDS011;10365;52.578;8.138;2023-09-07T11:46:43;7.30;;;4.10;;
20411;SDS011;10365;52.578;8.138;2023-09-07T11:49:08;8.93;;;3.75;;
20411;SDS011;10365;52.578;8.138;2023-09-07T11:51:34;5.07;;;3.80;;
20411;SDS011;10365;52.578;8.138;2023-09-07T11:54:01;7.80;;;4.10;;
20411;SDS011;10365;52.578;8.138;2023-09-07T11:56:27;4.65;;;3.60;;
20411;SDS011;10365;52.578;8.138;2023-09-07T11:58:52;5.82;;;4.20;;
20411;SDS011;10365;52.578;8.138;2023-09-07T12:01:17;10.13;;;4.13;;
20411;SDS011;10365;52.578;8.138;2023-09-07T12:03:43;11.15;;;4.53;;
20411;SDS011;10365;52.578;8.138;2023-09-07T12:06:09;13.27;;;4.82;;
20411;SDS011;10365;52.578;8.138;2023-09-07T12:08:36;5.95;;;3.75;;
20411;SDS011;10365;52.578;8.138;2023-09-07T12:11:02;7.78;;;3.85;;
20411;SDS011;10365;52.578;8.138;2023-09-07T12:13:27;6.82;;;4.05;;
20411;SDS011;10365;52.578;8.138;2023-09-07T12:15:53;6.70;;;3.60;;
20411;SDS011;10365;52.578;8.138;2023-09-07T12:18:18;4.72;;;3.75;;
20411;SDS011;10365;52.578;8.138;2023-09-07T12:20:43;4.45;;;3.08;;
20411;SDS011;10365;52.578;8.138;2023-09-07T12:23:10;9.98;;;4.00;;
20411;SDS011;10365;52.578;8.138;2023-09-07T12:25:35;6.15;;;3.53;;
20411;SDS011;10365;52.578;8.138;2023-09-07T12:28:01;7.53;;;3.92;;
20411;SDS011;10365;52.578;8.138;2023-09-07T12:30:27;8.95;;;3.65;;
20411;SDS011;10365;52.578;8.138;2023-09-07T12:32:52;5.20;;;3.88;;
20411;SDS011;10365;52.578;8.138;2023-09-07T12:35:17;6.93;;;3.75;;
20411;SDS011;10365;52.578;8.138;2023-09-07T12:37:45;6.43;;;3.28;;
20411;SDS011;10365;52.578;8.138;2023-09-07T12:40:10;6.28;;;3.28;;
20411;SDS011;10365;52.578;8.138;2023-09-07T12:42:43;6.35;;;3.30;;
20411;SDS011;10365;52.578;8.138;2023-09-07T12:45:09;7.90;;;3.58;;
20411;SDS011;10365;52.578;8.138;2023-09-07T12:47:36;6.07;;;3.00;;
20411;SDS011;10365;52.578;8.138;2023-09-07T12:50:01;5.93;;;3.30;;
20411;SDS011;10365;52.578;8.138;2023-09-07T12:52:27;6.80;;;3.30;;
20411;SDS011;10365;52.578;8.138;2023-09-07T12:54:53;8.90;;;3.00;;
20411;SDS011;10365;52.578;8.138;2023-09-07T12:57:18;6.30;;;3.50;;
20411;SDS011;10365;52.578;8.138;2023-09-07T12:59:44;4.00;;;3.15;;
20411;SDS011;10365;52.578;8.138;2023-09-07T13:02:09;4.38;;;3.20;;
20411;SDS011;10365;52.578;8.138;2023-09-07T13:04:34;7.63;;;3.58;;
20411;SDS011;10365;52.578;8.138;2023-09-07T13:07:00;8.27;;;3.90;;
20411;SDS011;10365;52.578;8.138;2023-09-07T13:09:26;4.85;;;3.40;;
20411;SDS011;10365;52.578;8.138;2023-09-07T13:11:51;6.93;;;3.20;;
20411;SDS011;10365;52.578;8.138;2023-09-07T13:14:17;5.85;;;3.33;;
20411;SDS011;10365;52.578;8.138;2023-09-07T13:16:42;4.57;;;3.50;;
20411;SDS011;10365;52.578;8.138;2023-09-07T13:19:08;6.95;;;3.42;;
20411;SDS011;10365;52.578;8.138;2023-09-07T13:21:33;9.90;;;3.10;;
20411;SDS011;10365;52.578;8.138;2023-09-07T13:23:58;6.97;;;3.63;;
20411;SDS011;10365;52.578;8.138;2023-09-07T13:26:24;6.13;;;4.13;;
20411;SDS011;10365;52.578;8.138;2023-09-07T13:28:49;4.78;;;3.38;;
20411;SDS011;10365;52.578;8.138;2023-09-07T13:31:14;5.03;;;3.55;;
20411;SDS011;10365;52.578;8.138;2023-09-07T13:33:40;9.38;;;3.80;;
20411;SDS011;10365;52.578;8.138;2023-09-07T13:36:05;6.40;;;3.45;;
20411;SDS011;10365;52.578;8.138;2023-09-07T13:38:31;7.28;;;3.33;;
20411;SDS011;10365;52.578;8.138;2023-09-07T13:40:57;11.57;;;3.63;;
20411;SDS011;10365;52.578;8.138;2023-09-07T13:43:22;6.57;;;3.40;;
20411;SDS011;10365;52.578;8.138;2023-09-07T13:45:47;9.02;;;3.13;;
20411;SDS011;10365;52.578;8.138;2023-09-07T13:48:13;4.90;;;3.30;;
20411;SDS011;10365;52.578;8.138;2023-09-07T13:50:38;7.57;;;3.22;;
20411;SDS011;10365;52.578;8.138;2023-09-07T13:53:04;5.47;;;3.03;;
20411;SDS011;10365;52.578;8.138;2023-09-07T13:55:29;6.97;;;3.25;;
20411;SDS011;10365;52.578;8.138;2023-09-07T13:57:55;8.65;;;3.65;;
20411;SDS011;10365;52.578;8.138;2023-09-07T14:00:20;5.30;;;3.45;;
20411;SDS011;10365;52.578;8.138;2023-09-07T14:02:45;8.40;;;3.00;;
20411;SDS011;10365;52.578;8.138;2023-09-07T14:05:11;4.60;;;3.17;;
20411;SDS011;10365;52.578;8.138;2023-09-07T14:07:36;5.63;;;3.20;;
20411;SDS011;10365;52.578;8.138;2023-09-07T14:10:01;6.78;;;3.30;;
20411;SDS011;10365;52.578;8.138;2023-09-07T14:12:27;5.80;;;3.50;;
20411;SDS011;10365;52.578;8.138;2023-09-07T14:14:52;5.22;;;3.25;;
20411;SDS011;10365;52.578;8.138;2023-09-07T14:17:17;8.07;;;3.70;;
20411;SDS011;10365;52.578;8.138;2023-09-07T14:19:43;8.15;;;3.53;;
20411;SDS011;10365;52.578;8.138;2023-09-07T14:22:12;4.60;;;3.20;;
20411;SDS011;10365;52.578;8.138;2023-09-07T14:24:37;7.60;;;3.25;;
20411;SDS011;10365;52.578;8.138;2023-09-07T14:27:02;3.80;;;3.13;;
20411;SDS011;10365;52.578;8.138;2023-09-07T14:29:29;7.30;;;4.05;;
20411;SDS011;10365;52.578;8.138;2023-09-07T14:31:54;8.13;;;3.53;;
20411;SDS011;10365;52.578;8.138;2023-09-07T14:34:20;14.30;;;3.47;;